Terminal Aerodrome Forecast
Issued by NWS Mt. Holly, NJ

Home | Current Version | Previous Version | Text Only | Print | Product List | Glossary On
Versions: 1 2 3 4 5 6 7 8 9 10 11 12 13 14 15 16 17 18 19 20 21 22 23 24 25
367
FTUS41 KPHI 300148 AAA
TAFTTN
TAF AMD
KTTN 300148Z 3002/3024 VRB03KT P6SM SCT070
      TEMPO 3002/3004 5SM -SHRA BKN050
     FM300900 VRB03KT 5SM BR BKN200
     FM301400 15004KT P6SM FEW040 BKN100
     FM301900 17005KT 6SM -SHRA OVC045=

USA.gov is the U.S. government's official web portal to all federal, state and local government web resources and services.